sensor_id;sensor_type;location;lat;lon;timestamp;P1;durP1;ratioP1;P2;durP2;ratioP2
72891;SDS011;61032;50.782;6.818;2022-12-11T00:00:18;35.22;;;14.63;;
72891;SDS011;61032;50.782;6.818;2022-12-11T00:01:19;34.70;;;14.40;;
72891;SDS011;61032;50.782;6.818;2022-12-11T00:02:20;37.42;;;14.25;;
72891;SDS011;61032;50.782;6.818;2022-12-11T00:03:20;34.33;;;14.85;;
72891;SDS011;61032;50.782;6.818;2022-12-11T00:04:21;39.35;;;16.30;;
72891;SDS011;61032;50.782;6.818;2022-12-11T00:05:22;33.00;;;14.93;;
72891;SDS011;61032;50.782;6.818;2022-12-11T00:06:23;34.60;;;14.90;;
72891;SDS011;61032;50.782;6.818;2022-12-11T00:07:23;34.83;;;13.95;;
72891;SDS011;61032;50.782;6.818;2022-12-11T00:08:23;35.65;;;13.38;;
72891;SDS011;61032;50.782;6.818;2022-12-11T00:09:24;31.45;;;12.88;;
72891;SDS011;61032;50.782;6.818;2022-12-11T00:10:24;33.75;;;16.67;;
72891;SDS011;61032;50.782;6.818;2022-12-11T00:11:24;31.83;;;13.80;;
72891;SDS011;61032;50.782;6.818;2022-12-11T00:12:25;36.15;;;14.88;;
72891;SDS011;61032;50.782;6.818;2022-12-11T00:13:26;36.92;;;15.02;;
72891;SDS011;61032;50.782;6.818;2022-12-11T00:14:27;32.30;;;14.65;;
72891;SDS011;61032;50.782;6.818;2022-12-11T00:15:28;33.28;;;15.10;;
72891;SDS011;61032;50.782;6.818;2022-12-11T00:16:29;30.10;;;13.00;;
72891;SDS011;61032;50.782;6.818;2022-12-11T00:17:29;32.63;;;13.38;;
72891;SDS011;61032;50.782;6.818;2022-12-11T00:18:29;30.52;;;13.93;;
72891;SDS011;61032;50.782;6.818;2022-12-11T00:19:30;28.77;;;11.15;;
72891;SDS011;61032;50.782;6.818;2022-12-11T00:20:30;32.20;;;12.02;;
72891;SDS011;61032;50.782;6.818;2022-12-11T00:21:31;31.13;;;13.10;;
72891;SDS011;61032;50.782;6.818;2022-12-11T00:22:31;30.77;;;13.95;;
72891;SDS011;61032;50.782;6.818;2022-12-11T00:23:32;32.97;;;13.57;;
72891;SDS011;61032;50.782;6.818;2022-12-11T00:24:33;32.40;;;12.93;;
72891;SDS011;61032;50.782;6.818;2022-12-11T00:25:33;33.47;;;13.18;;
72891;SDS011;61032;50.782;6.818;2022-12-11T00:26:34;28.05;;;12.40;;
72891;SDS011;61032;50.782;6.818;2022-12-11T00:27:34;29.08;;;12.27;;
72891;SDS011;61032;50.782;6.818;2022-12-11T00:28:34;28.05;;;11.95;;
72891;SDS011;61032;50.782;6.818;2022-12-11T00:29:35;27.67;;;11.45;;
72891;SDS011;61032;50.782;6.818;2022-12-11T00:30:39;28.10;;;11.75;;
72891;SDS011;61032;50.782;6.818;2022-12-11T00:31:41;27.83;;;11.85;;
72891;SDS011;61032;50.782;6.818;2022-12-11T00:32:41;28.50;;;12.27;;
72891;SDS011;61032;50.782;6.818;2022-12-11T00:33:43;26.48;;;12.68;;
72891;SDS011;61032;50.782;6.818;2022-12-11T00:34:45;26.42;;;12.13;;
72891;SDS011;61032;50.782;6.818;2022-12-11T00:35:45;25.73;;;11.68;;
72891;SDS011;61032;50.782;6.818;2022-12-11T00:36:46;29.77;;;13.30;;
72891;SDS011;61032;50.782;6.818;2022-12-11T00:37:47;27.60;;;12.32;;
72891;SDS011;61032;50.782;6.818;2022-12-11T00:38:47;26.38;;;11.43;;
72891;SDS011;61032;50.782;6.818;2022-12-11T00:39:48;28.60;;;11.95;;
72891;SDS011;61032;50.782;6.818;2022-12-11T00:40:49;29.00;;;11.82;;
72891;SDS011;61032;50.782;6.818;2022-12-11T00:41:49;25.90;;;11.98;;
72891;SDS011;61032;50.782;6.818;2022-12-11T00:42:49;28.17;;;12.57;;
72891;SDS011;61032;50.782;6.818;2022-12-11T00:43:52;30.83;;;12.80;;
72891;SDS011;61032;50.782;6.818;2022-12-11T00:44:52;28.48;;;10.85;;
72891;SDS011;61032;50.782;6.818;2022-12-11T00:45:53;31.70;;;11.35;;
72891;SDS011;61032;50.782;6.818;2022-12-11T00:46:54;30.95;;;12.52;;
72891;SDS011;61032;50.782;6.818;2022-12-11T00:47:54;26.45;;;12.63;;
72891;SDS011;61032;50.782;6.818;2022-12-11T00:48:54;28.35;;;11.68;;
72891;SDS011;61032;50.782;6.818;2022-12-11T00:49:55;27.75;;;11.93;;
72891;SDS011;61032;50.782;6.818;2022-12-11T00:50:55;32.47;;;12.10;;
72891;SDS011;61032;50.782;6.818;2022-12-11T00:51:56;26.58;;;11.30;;
72891;SDS011;61032;50.782;6.818;2022-12-11T00:52:56;24.85;;;11.70;;
72891;SDS011;61032;50.782;6.818;2022-12-11T00:53:56;30.92;;;12.45;;
72891;SDS011;61032;50.782;6.818;2022-12-11T00:54:57;25.00;;;10.98;;
72891;SDS011;61032;50.782;6.818;2022-12-11T00:55:57;29.02;;;13.20;;
72891;SDS011;61032;50.782;6.818;2022-12-11T00:56:57;26.48;;;12.18;;
72891;SDS011;61032;50.782;6.818;2022-12-11T00:57:58;27.58;;;12.20;;
72891;SDS011;61032;50.782;6.818;2022-12-11T00:58:58;26.80;;;12.60;;
72891;SDS011;61032;50.782;6.818;2022-12-11T00:59:58;31.70;;;12.32;;
72891;SDS011;61032;50.782;6.818;2022-12-11T01:01:09;27.65;;;11.98;;
72891;SDS011;61032;50.782;6.818;2022-12-11T01:02:11;29.08;;;11.00;;
72891;SDS011;61032;50.782;6.818;2022-12-11T01:03:12;26.17;;;11.13;;
72891;SDS011;61032;50.782;6.818;2022-12-11T01:04:13;30.95;;;12.10;;
72891;SDS011;61032;50.782;6.818;2022-12-11T01:05:13;33.83;;;12.50;;
72891;SDS011;61032;50.782;6.818;2022-12-11T01:06:15;29.55;;;12.25;;
72891;SDS011;61032;50.782;6.818;2022-12-11T01:07:18;30.30;;;12.43;;
72891;SDS011;61032;50.782;6.818;2022-12-11T01:08:18;24.48;;;10.65;;
72891;SDS011;61032;50.782;6.818;2022-12-11T01:09:19;29.23;;;12.68;;
72891;SDS011;61032;50.782;6.818;2022-12-11T01:10:38;27.38;;;12.20;;
72891;SDS011;61032;50.782;6.818;2022-12-11T01:11:39;27.10;;;12.70;;
72891;SDS011;61032;50.782;6.818;2022-12-11T01:12:41;27.85;;;11.82;;
72891;SDS011;61032;50.782;6.818;2022-12-11T01:13:41;25.40;;;12.15;;
72891;SDS011;61032;50.782;6.818;2022-12-11T01:14:42;28.95;;;11.68;;
72891;SDS011;61032;50.782;6.818;2022-12-11T01:15:43;27.58;;;11.13;;
72891;SDS011;61032;50.782;6.818;2022-12-11T01:16:44;27.85;;;11.75;;
72891;SDS011;61032;50.782;6.818;2022-12-11T01:17:44;30.95;;;11.85;;
72891;SDS011;61032;50.782;6.818;2022-12-11T01:18:45;30.15;;;12.57;;
72891;SDS011;61032;50.782;6.818;2022-12-11T01:19:45;31.38;;;11.60;;
72891;SDS011;61032;50.782;6.818;2022-12-11T01:20:45;24.10;;;11.07;;
72891;SDS011;61032;50.782;6.818;2022-12-11T01:21:46;26.95;;;11.48;;
72891;SDS011;61032;50.782;6.818;2022-12-11T01:22:46;26.40;;;11.13;;
72891;SDS011;61032;50.782;6.818;2022-12-11T01:23:48;27.40;;;11.65;;
72891;SDS011;61032;50.782;6.818;2022-12-11T01:24:49;28.20;;;12.05;;
72891;SDS011;61032;50.782;6.818;2022-12-11T01:25:49;29.52;;;12.38;;
72891;SDS011;61032;50.782;6.818;2022-12-11T01:26:50;26.60;;;11.80;;
72891;SDS011;61032;50.782;6.818;2022-12-11T01:27:50;29.67;;;13.13;;
72891;SDS011;61032;50.782;6.818;2022-12-11T01:28:52;29.88;;;11.82;;
72891;SDS011;61032;50.782;6.818;2022-12-11T01:29:52;28.08;;;13.13;;
72891;SDS011;61032;50.782;6.818;2022-12-11T01:30:54;27.30;;;11.95;;
72891;SDS011;61032;50.782;6.818;2022-12-11T01:31:54;31.00;;;12.25;;
72891;SDS011;61032;50.782;6.818;2022-12-11T01:32:54;28.15;;;12.32;;
72891;SDS011;61032;50.782;6.818;2022-12-11T01:33:54;27.75;;;12.75;;
72891;SDS011;61032;50.782;6.818;2022-12-11T01:34:55;29.95;;;12.30;;
72891;SDS011;61032;50.782;6.818;2022-12-11T01:35:55;26.02;;;11.57;;
72891;SDS011;61032;50.782;6.818;2022-12-11T01:36:56;25.73;;;12.52;;
72891;SDS011;61032;50.782;6.818;2022-12-11T01:37:56;27.92;;;10.95;;
72891;SDS011;61032;50.782;6.818;2022-12-11T01:38:58;27.00;;;11.55;;
72891;SDS011;61032;50.782;6.818;2022-12-11T01:39:59;29.92;;;12.15;;
72891;SDS011;61032;50.782;6.818;2022-12-11T01:41:00;27.67;;;12.00;;
72891;SDS011;61032;50.782;6.818;2022-12-11T01:42:01;25.02;;;11.68;;
72891;SDS011;61032;50.782;6.818;2022-12-11T01:43:02;29.52;;;13.70;;
72891;SDS011;61032;50.782;6.818;2022-12-11T01:44:06;27.98;;;11.65;;
72891;SDS011;61032;50.782;6.818;2022-12-11T01:45:29;24.38;;;10.82;;
72891;SDS011;61032;50.782;6.818;2022-12-11T01:46:33;32.60;;;12.88;;
72891;SDS011;61032;50.782;6.818;2022-12-11T01:47:34;30.85;;;12.23;;
72891;SDS011;61032;50.782;6.818;2022-12-11T01:48:35;27.23;;;12.50;;
72891;SDS011;61032;50.782;6.818;2022-12-11T01:49:35;31.30;;;11.60;;
72891;SDS011;61032;50.782;6.818;2022-12-11T01:50:40;28.13;;;11.43;;
72891;SDS011;61032;50.782;6.818;2022-12-11T01:51:57;26.80;;;11.00;;
72891;SDS011;61032;50.782;6.818;2022-12-11T01:53:01;29.08;;;11.75;;
72891;SDS011;61032;50.782;6.818;2022-12-11T01:54:05;26.85;;;11.35;;
72891;SDS011;61032;50.782;6.818;2022-12-11T01:55:07;26.48;;;11.13;;
72891;SDS011;61032;50.782;6.818;2022-12-11T01:56:08;28.02;;;11.00;;
72891;SDS011;61032;50.782;6.818;2022-12-11T01:57:10;22.23;;;11.77;;
72891;SDS011;61032;50.782;6.818;2022-12-11T01:58:12;27.08;;;11.65;;
72891;SDS011;61032;50.782;6.818;2022-12-11T01:59:16;25.30;;;10.90;;
72891;SDS011;61032;50.782;6.818;2022-12-11T02:00:19;25.75;;;11.05;;
72891;SDS011;61032;50.782;6.818;2022-12-11T02:01:24;23.65;;;10.57;;
72891;SDS011;61032;50.782;6.818;2022-12-11T02:02:32;22.30;;;10.32;;
72891;SDS011;61032;50.782;6.818;2022-12-11T02:03:32;22.83;;;9.30;;
72891;SDS011;61032;50.782;6.818;2022-12-11T02:04:33;24.02;;;9.98;;
72891;SDS011;61032;50.782;6.818;2022-12-11T02:05:36;22.70;;;8.82;;
72891;SDS011;61032;50.782;6.818;2022-12-11T02:06:38;20.58;;;10.38;;
72891;SDS011;61032;50.782;6.818;2022-12-11T02:07:53;23.92;;;9.93;;
72891;SDS011;61032;50.782;6.818;2022-12-11T02:08:57;21.17;;;10.15;;
72891;SDS011;61032;50.782;6.818;2022-12-11T02:09:58;23.90;;;9.73;;
72891;SDS011;61032;50.782;6.818;2022-12-11T02:11:02;21.67;;;10.13;;
72891;SDS011;61032;50.782;6.818;2022-12-11T02:14:02;23.38;;;10.45;;
72891;SDS011;61032;50.782;6.818;2022-12-11T02:15:09;20.70;;;9.05;;
72891;SDS011;61032;50.782;6.818;2022-12-11T02:16:25;19.80;;;9.23;;
72891;SDS011;61032;50.782;6.818;2022-12-11T02:18:52;20.77;;;9.73;;
72891;SDS011;61032;50.782;6.818;2022-12-11T02:20:02;18.00;;;8.32;;
72891;SDS011;61032;50.782;6.818;2022-12-11T02:25:02;21.15;;;10.18;;
72891;SDS011;61032;50.782;6.818;2022-12-11T02:28:46;21.45;;;9.07;;
72891;SDS011;61032;50.782;6.818;2022-12-11T02:30:04;18.92;;;9.23;;
72891;SDS011;61032;50.782;6.818;2022-12-11T02:31:15;20.58;;;9.60;;
72891;SDS011;61032;50.782;6.818;2022-12-11T02:32:25;19.27;;;10.32;;
72891;SDS011;61032;50.782;6.818;2022-12-11T02:33:32;20.67;;;10.40;;
72891;SDS011;61032;50.782;6.818;2022-12-11T02:34:41;21.27;;;8.27;;
72891;SDS011;61032;50.782;6.818;2022-12-11T02:35:45;19.50;;;9.35;;
72891;SDS011;61032;50.782;6.818;2022-12-11T02:36:49;24.10;;;9.57;;
72891;SDS011;61032;50.782;6.818;2022-12-11T02:37:55;22.70;;;9.82;;
72891;SDS011;61032;50.782;6.818;2022-12-11T02:39:00;20.35;;;8.90;;
72891;SDS011;61032;50.782;6.818;2022-12-11T02:40:04;21.25;;;9.77;;
72891;SDS011;61032;50.782;6.818;2022-12-11T02:41:08;18.10;;;9.80;;
72891;SDS011;61032;50.782;6.818;2022-12-11T02:42:11;22.52;;;9.38;;
72891;SDS011;61032;50.782;6.818;2022-12-11T02:43:13;21.90;;;9.18;;
72891;SDS011;61032;50.782;6.818;2022-12-11T02:44:20;23.20;;;9.85;;
72891;SDS011;61032;50.782;6.818;2022-12-11T02:45:24;21.50;;;9.60;;
72891;SDS011;61032;50.782;6.818;2022-12-11T02:46:26;21.33;;;8.68;;
72891;SDS011;61032;50.782;6.818;2022-12-11T02:47:28;20.60;;;10.25;;
72891;SDS011;61032;50.782;6.818;2022-12-11T02:48:32;19.80;;;8.68;;
72891;SDS011;61032;50.782;6.818;2022-12-11T02:49:33;19.50;;;8.23;;
72891;SDS011;61032;50.782;6.818;2022-12-11T02:50:35;22.42;;;9.13;;
72891;SDS011;61032;50.782;6.818;2022-12-11T02:51:39;21.35;;;9.82;;
72891;SDS011;61032;50.782;6.818;2022-12-11T02:52:40;24.70;;;11.30;;
72891;SDS011;61032;50.782;6.818;2022-12-11T02:53:42;21.63;;;9.52;;
72891;SDS011;61032;50.782;6.818;2022-12-11T02:54:43;22.42;;;8.80;;
72891;SDS011;61032;50.782;6.818;2022-12-11T02:55:46;19.95;;;9.05;;
72891;SDS011;61032;50.782;6.818;2022-12-11T02:58:36;19.25;;;8.52;;
72891;SDS011;61032;50.782;6.818;2022-12-11T02:59:42;20.80;;;9.13;;
72891;SDS011;61032;50.782;6.818;2022-12-11T03:00:44;18.85;;;9.82;;
72891;SDS011;61032;50.782;6.818;2022-12-11T03:01:45;20.30;;;9.30;;
72891;SDS011;61032;50.782;6.818;2022-12-11T03:02:46;20.73;;;9.23;;
72891;SDS011;61032;50.782;6.818;2022-12-11T03:03:46;19.33;;;9.13;;
72891;SDS011;61032;50.782;6.818;2022-12-11T03:04:47;20.88;;;9.75;;
72891;SDS011;61032;50.782;6.818;2022-12-11T03:05:47;22.85;;;9.20;;
72891;SDS011;61032;50.782;6.818;2022-12-11T03:06:48;21.13;;;8.55;;
72891;SDS011;61032;50.782;6.818;2022-12-11T03:07:52;20.67;;;9.07;;
72891;SDS011;61032;50.782;6.818;2022-12-11T03:08:54;24.27;;;9.52;;
72891;SDS011;61032;50.782;6.818;2022-12-11T03:09:54;19.50;;;9.63;;
72891;SDS011;61032;50.782;6.818;2022-12-11T03:10:54;19.33;;;9.50;;
72891;SDS011;61032;50.782;6.818;2022-12-11T03:11:55;21.33;;;9.18;;
72891;SDS011;61032;50.782;6.818;2022-12-11T03:12:55;22.33;;;9.40;;
72891;SDS011;61032;50.782;6.818;2022-12-11T03:13:57;23.45;;;9.50;;
72891;SDS011;61032;50.782;6.818;2022-12-11T03:15:02;21.45;;;8.93;;
72891;SDS011;61032;50.782;6.818;2022-12-11T03:16:14;23.98;;;10.02;;
72891;SDS011;61032;50.782;6.818;2022-12-11T03:17:21;20.45;;;8.80;;
72891;SDS011;61032;50.782;6.818;2022-12-11T03:18:46;25.17;;;9.95;;
72891;SDS011;61032;50.782;6.818;2022-12-11T03:19:59;20.50;;;9.80;;
72891;SDS011;61032;50.782;6.818;2022-12-11T03:21:16;17.30;;;9.52;;
72891;SDS011;61032;50.782;6.818;2022-12-11T03:22:23;21.10;;;10.15;;
72891;SDS011;61032;50.782;6.818;2022-12-11T03:23:36;20.58;;;9.38;;
72891;SDS011;61032;50.782;6.818;2022-12-11T03:24:45;23.98;;;9.75;;
72891;SDS011;61032;50.782;6.818;2022-12-11T03:29:39;21.55;;;9.63;;
72891;SDS011;61032;50.782;6.818;2022-12-11T03:30:50;18.38;;;8.80;;
72891;SDS011;61032;50.782;6.818;2022-12-11T03:31:57;23.13;;;9.90;;
72891;SDS011;61032;50.782;6.818;2022-12-11T03:33:02;25.05;;;10.07;;
72891;SDS011;61032;50.782;6.818;2022-12-11T03:34:09;22.85;;;9.52;;
72891;SDS011;61032;50.782;6.818;2022-12-11T03:36:30;27.00;;;11.05;;
72891;SDS011;61032;50.782;6.818;2022-12-11T03:37:34;24.45;;;9.82;;
72891;SDS011;61032;50.782;6.818;2022-12-11T03:39:51;22.20;;;10.27;;
72891;SDS011;61032;50.782;6.818;2022-12-11T03:40:55;24.02;;;12.00;;
72891;SDS011;61032;50.782;6.818;2022-12-11T03:42:03;22.95;;;9.77;;
72891;SDS011;61032;50.782;6.818;2022-12-11T03:43:06;20.85;;;9.95;;
72891;SDS011;61032;50.782;6.818;2022-12-11T03:44:08;22.85;;;9.70;;
72891;SDS011;61032;50.782;6.818;2022-12-11T03:45:10;20.27;;;9.35;;
72891;SDS011;61032;50.782;6.818;2022-12-11T03:46:12;21.17;;;9.40;;
72891;SDS011;61032;50.782;6.818;2022-12-11T03:47:16;22.90;;;10.23;;
72891;SDS011;61032;50.782;6.818;2022-12-11T03:48:20;25.95;;;10.57;;
72891;SDS011;61032;50.782;6.818;2022-12-11T03:49:23;23.50;;;9.60;;
72891;SDS011;61032;50.782;6.818;2022-12-11T03:50:29;20.83;;;9.05;;
72891;SDS011;61032;50.782;6.818;2022-12-11T03:51:31;22.02;;;9.85;;
72891;SDS011;61032;50.782;6.818;2022-12-11T03:52:33;23.52;;;10.48;;
72891;SDS011;61032;50.782;6.818;2022-12-11T03:53:35;25.70;;;10.73;;
72891;SDS011;61032;50.782;6.818;2022-12-11T03:54:37;24.25;;;10.18;;
72891;SDS011;61032;50.782;6.818;2022-12-11T03:55:40;22.83;;;9.93;;
72891;SDS011;61032;50.782;6.818;2022-12-11T03:56:42;23.17;;;8.93;;
72891;SDS011;61032;50.782;6.818;2022-12-11T03:57:44;24.98;;;9.70;;
72891;SDS011;61032;50.782;6.818;2022-12-11T03:58:45;23.23;;;10.60;;
72891;SDS011;61032;50.782;6.818;2022-12-11T03:59:45;26.17;;;11.55;;
72891;SDS011;61032;50.782;6.818;2022-12-11T04:00:46;23.30;;;9.73;;
72891;SDS011;61032;50.782;6.818;2022-12-11T04:01:46;18.10;;;9.57;;
72891;SDS011;61032;50.782;6.818;2022-12-11T04:02:47;23.15;;;9.27;;
72891;SDS011;61032;50.782;6.818;2022-12-11T04:04:09;23.63;;;9.15;;
72891;SDS011;61032;50.782;6.818;2022-12-11T04:05:10;19.17;;;8.68;;
72891;SDS011;61032;50.782;6.818;2022-12-11T04:06:10;21.92;;;10.20;;
72891;SDS011;61032;50.782;6.818;2022-12-11T04:07:10;21.17;;;9.30;;
72891;SDS011;61032;50.782;6.818;2022-12-11T04:08:11;20.45;;;9.20;;
72891;SDS011;61032;50.782;6.818;2022-12-11T04:09:12;20.75;;;9.13;;
72891;SDS011;61032;50.782;6.818;2022-12-11T04:10:12;22.70;;;9.13;;
72891;SDS011;61032;50.782;6.818;2022-12-11T04:11:12;24.08;;;10.13;;
72891;SDS011;61032;50.782;6.818;2022-12-11T04:12:31;20.52;;;8.10;;
72891;SDS011;61032;50.782;6.818;2022-12-11T04:13:32;24.60;;;10.23;;
72891;SDS011;61032;50.782;6.818;2022-12-11T04:14:35;19.27;;;10.27;;
72891;SDS011;61032;50.782;6.818;2022-12-11T04:16:05;20.17;;;9.07;;
72891;SDS011;61032;50.782;6.818;2022-12-11T04:17:05;20.08;;;9.15;;
72891;SDS011;61032;50.782;6.818;2022-12-11T04:18:06;21.73;;;9.82;;
72891;SDS011;61032;50.782;6.818;2022-12-11T04:19:25;19.55;;;8.48;;
72891;SDS011;61032;50.782;6.818;2022-12-11T04:20:44;25.13;;;10.55;;
72891;SDS011;61032;50.782;6.818;2022-12-11T04:22:03;13.93;;;7.75;;
72891;SDS011;61032;50.782;6.818;2022-12-11T04:23:22;21.30;;;9.63;;
72891;SDS011;61032;50.782;6.818;2022-12-11T04:24:41;20.63;;;9.60;;
72891;SDS011;61032;50.782;6.818;2022-12-11T04:25:41;18.17;;;8.73;;
72891;SDS011;61032;50.782;6.818;2022-12-11T04:26:45;21.38;;;8.07;;
72891;SDS011;61032;50.782;6.818;2022-12-11T04:27:45;21.73;;;9.40;;
72891;SDS011;61032;50.782;6.818;2022-12-11T04:28:49;19.98;;;9.10;;
72891;SDS011;61032;50.782;6.818;2022-12-11T04:29:49;17.85;;;9.23;;
72891;SDS011;61032;50.782;6.818;2022-12-11T04:30:49;19.10;;;9.57;;
72891;SDS011;61032;50.782;6.818;2022-12-11T04:31:49;19.48;;;9.15;;
72891;SDS011;61032;50.782;6.818;2022-12-11T04:32:52;16.75;;;8.70;;
72891;SDS011;61032;50.782;6.818;2022-12-11T04:33:53;23.52;;;9.40;;
72891;SDS011;61032;50.782;6.818;2022-12-11T04:34:53;19.05;;;9.40;;
72891;SDS011;61032;50.782;6.818;2022-12-11T04:35:56;17.35;;;8.98;;
72891;SDS011;61032;50.782;6.818;2022-12-11T04:36:57;18.60;;;9.57;;
72891;SDS011;61032;50.782;6.818;2022-12-11T04:37:57;19.17;;;9.65;;
72891;SDS011;61032;50.782;6.818;2022-12-11T04:38:58;19.13;;;9.75;;
72891;SDS011;61032;50.782;6.818;2022-12-11T04:39:58;22.25;;;9.68;;
72891;SDS011;61032;50.782;6.818;2022-12-11T04:40:59;19.75;;;9.80;;
72891;SDS011;61032;50.782;6.818;2022-12-11T04:42:01;18.38;;;8.32;;
72891;SDS011;61032;50.782;6.818;2022-12-11T04:43:01;16.42;;;8.25;;
72891;SDS011;61032;50.782;6.818;2022-12-11T04:44:01;17.92;;;9.30;;
72891;SDS011;61032;50.782;6.818;2022-12-11T04:45:05;19.50;;;9.52;;
72891;SDS011;61032;50.782;6.818;2022-12-11T04:46:11;22.38;;;10.07;;
72891;SDS011;61032;50.782;6.818;2022-12-11T04:47:13;19.08;;;8.55;;
72891;SDS011;61032;50.782;6.818;2022-12-11T04:48:16;20.52;;;9.43;;
72891;SDS011;61032;50.782;6.818;2022-12-11T04:49:16;18.02;;;8.90;;
72891;SDS011;61032;50.782;6.818;2022-12-11T04:50:19;19.95;;;9.57;;
72891;SDS011;61032;50.782;6.818;2022-12-11T04:51:20;19.65;;;9.63;;
72891;SDS011;61032;50.782;6.818;2022-12-11T04:52:20;20.33;;;8.73;;
72891;SDS011;61032;50.782;6.818;2022-12-11T04:53:26;21.35;;;8.88;;
72891;SDS011;61032;50.782;6.818;2022-12-11T04:54:30;19.83;;;8.77;;
72891;SDS011;61032;50.782;6.818;2022-12-11T04:55:31;21.70;;;8.95;;
72891;SDS011;61032;50.782;6.818;2022-12-11T04:56:31;19.30;;;9.07;;
72891;SDS011;61032;50.782;6.818;2022-12-11T04:57:32;22.33;;;9.73;;
72891;SDS011;61032;50.782;6.818;2022-12-11T04:58:32;21.33;;;10.07;;
72891;SDS011;61032;50.782;6.818;2022-12-11T04:59:34;17.65;;;9.18;;
72891;SDS011;61032;50.782;6.818;2022-12-11T05:00:36;18.48;;;8.10;;
72891;SDS011;61032;50.782;6.818;2022-12-11T05:01:36;20.35;;;9.57;;
72891;SDS011;61032;50.782;6.818;2022-12-11T05:02:37;19.80;;;9.60;;
72891;SDS011;61032;50.782;6.818;2022-12-11T05:03:38;24.00;;;10.43;;
72891;SDS011;61032;50.782;6.818;2022-12-11T05:04:39;21.83;;;9.45;;
72891;SDS011;61032;50.782;6.818;2022-12-11T05:05:39;21.15;;;9.40;;
72891;SDS011;61032;50.782;6.818;2022-12-11T05:06:40;23.85;;;10.13;;
72891;SDS011;61032;50.782;6.818;2022-12-11T05:07:40;17.17;;;8.23;;
72891;SDS011;61032;50.782;6.818;2022-12-11T05:10:22;18.52;;;8.30;;
72891;SDS011;61032;50.782;6.818;2022-12-11T05:11:23;24.23;;;10.52;;
72891;SDS011;61032;50.782;6.818;2022-12-11T05:12:23;22.48;;;10.10;;
72891;SDS011;61032;50.782;6.818;2022-12-11T05:13:23;19.98;;;9.70;;
72891;SDS011;61032;50.782;6.818;2022-12-11T05:14:25;21.33;;;10.68;;
72891;SDS011;61032;50.782;6.818;2022-12-11T05:15:26;21.40;;;9.10;;
72891;SDS011;61032;50.782;6.818;2022-12-11T05:16:26;25.30;;;11.00;;
72891;SDS011;61032;50.782;6.818;2022-12-11T05:17:27;24.55;;;10.25;;
72891;SDS011;61032;50.782;6.818;2022-12-11T05:18:27;22.50;;;9.95;;
72891;SDS011;61032;50.782;6.818;2022-12-11T05:19:27;23.55;;;9.63;;
72891;SDS011;61032;50.782;6.818;2022-12-11T05:20:28;23.70;;;9.65;;
72891;SDS011;61032;50.782;6.818;2022-12-11T05:21:28;23.17;;;10.07;;
72891;SDS011;61032;50.782;6.818;2022-12-11T05:22:29;20.92;;;9.70;;
72891;SDS011;61032;50.782;6.818;2022-12-11T05:24:31;21.38;;;9.15;;
72891;SDS011;61032;50.782;6.818;2022-12-11T05:25:31;23.60;;;10.95;;
72891;SDS011;61032;50.782;6.818;2022-12-11T05:26:37;21.60;;;9.93;;
72891;SDS011;61032;50.782;6.818;2022-12-11T05:27:40;22.75;;;10.60;;
72891;SDS011;61032;50.782;6.818;2022-12-11T05:28:41;22.08;;;10.00;;
72891;SDS011;61032;50.782;6.818;2022-12-11T05:29:42;21.98;;;11.07;;
72891;SDS011;61032;50.782;6.818;2022-12-11T05:30:42;22.25;;;10.57;;
72891;SDS011;61032;50.782;6.818;2022-12-11T05:31:42;20.55;;;9.23;;
72891;SDS011;61032;50.782;6.818;2022-12-11T05:32:43;20.58;;;10.10;;
72891;SDS011;61032;50.782;6.818;2022-12-11T05:33:43;20.27;;;9.07;;
72891;SDS011;61032;50.782;6.818;2022-12-11T05:34:45;23.88;;;10.75;;
72891;SDS011;61032;50.782;6.818;2022-12-11T05:35:46;19.85;;;9.70;;
72891;SDS011;61032;50.782;6.818;2022-12-11T05:36:47;22.90;;;10.52;;
72891;SDS011;61032;50.782;6.818;2022-12-11T05:37:48;22.55;;;10.45;;
72891;SDS011;61032;50.782;6.818;2022-12-11T05:38:48;21.58;;;10.02;;
72891;SDS011;61032;50.782;6.818;2022-12-11T05:39:49;19.55;;;10.27;;
72891;SDS011;61032;50.782;6.818;2022-12-11T05:40:59;20.58;;;9.15;;
72891;SDS011;61032;50.782;6.818;2022-12-11T05:41:59;20.95;;;8.60;;
72891;SDS011;61032;50.782;6.818;2022-12-11T05:42:59;21.38;;;10.32;;
72891;SDS011;61032;50.782;6.818;2022-12-11T05:44:00;24.67;;;9.23;;
72891;SDS011;61032;50.782;6.818;2022-12-11T05:45:00;19.33;;;9.43;;
72891;SDS011;61032;50.782;6.818;2022-12-11T05:46:07;20.67;;;9.60;;
72891;SDS011;61032;50.782;6.818;2022-12-11T05:47:09;20.15;;;8.60;;
72891;SDS011;61032;50.782;6.818;2022-12-11T05:48:10;22.05;;;9.75;;
72891;SDS011;61032;50.782;6.818;2022-12-11T05:49:10;26.52;;;11.38;;
72891;SDS011;61032;50.782;6.818;2022-12-11T05:50:10;23.85;;;10.27;;
72891;SDS011;61032;50.782;6.818;2022-12-11T05:51:11;24.30;;;10.23;;
72891;SDS011;61032;50.782;6.818;2022-12-11T05:52:12;20.75;;;11.65;;
72891;SDS011;61032;50.782;6.818;2022-12-11T05:53:13;24.23;;;10.52;;
72891;SDS011;61032;50.782;6.818;2022-12-11T05:54:13;25.00;;;9.57;;
72891;SDS011;61032;50.782;6.818;2022-12-11T05:55:14;24.58;;;10.23;;
72891;SDS011;61032;50.782;6.818;2022-12-11T05:56:27;24.17;;;11.35;;
72891;SDS011;61032;50.782;6.818;2022-12-11T05:57:30;25.92;;;10.88;;
72891;SDS011;61032;50.782;6.818;2022-12-11T05:58:30;22.00;;;10.05;;
72891;SDS011;61032;50.782;6.818;2022-12-11T05:59:31;24.33;;;10.55;;
72891;SDS011;61032;50.782;6.818;2022-12-11T06:00:31;22.27;;;10.13;;
72891;SDS011;61032;50.782;6.818;2022-12-11T06:01:41;24.83;;;11.20;;
72891;SDS011;61032;50.782;6.818;2022-12-11T06:02:45;24.10;;;10.98;;
72891;SDS011;61032;50.782;6.818;2022-12-11T06:03:45;20.40;;;9.13;;
72891;SDS011;61032;50.782;6.818;2022-12-11T06:04:45;22.45;;;10.13;;
72891;SDS011;61032;50.782;6.818;2022-12-11T06:05:46;25.10;;;11.60;;
72891;SDS011;61032;50.782;6.818;2022-12-11T06:06:46;21.55;;;9.90;;
72891;SDS011;61032;50.782;6.818;2022-12-11T06:07:47;25.55;;;10.25;;
72891;SDS011;61032;50.782;6.818;2022-12-11T06:08:51;24.40;;;11.13;;
72891;SDS011;61032;50.782;6.818;2022-12-11T06:09:52;20.98;;;9.93;;
72891;SDS011;61032;50.782;6.818;2022-12-11T06:10:52;25.42;;;10.73;;
72891;SDS011;61032;50.782;6.818;2022-12-11T06:11:53;21.25;;;10.07;;
72891;SDS011;61032;50.782;6.818;2022-12-11T06:12:53;22.77;;;10.05;;
72891;SDS011;61032;50.782;6.818;2022-12-11T06:13:54;22.27;;;10.63;;
72891;SDS011;61032;50.782;6.818;2022-12-11T06:14:54;19.83;;;10.02;;
72891;SDS011;61032;50.782;6.818;2022-12-11T06:15:58;25.95;;;10.50;;
72891;SDS011;61032;50.782;6.818;2022-12-11T06:17:00;23.75;;;9.95;;
72891;SDS011;61032;50.782;6.818;2022-12-11T06:18:01;20.02;;;10.68;;
72891;SDS011;61032;50.782;6.818;2022-12-11T06:19:01;20.77;;;10.48;;
72891;SDS011;61032;50.782;6.818;2022-12-11T06:20:02;22.98;;;10.50;;
72891;SDS011;61032;50.782;6.818;2022-12-11T06:21:09;23.70;;;9.95;;
72891;SDS011;61032;50.782;6.818;2022-12-11T06:22:14;22.55;;;10.80;;
72891;SDS011;61032;50.782;6.818;2022-12-11T06:23:14;21.02;;;10.32;;
72891;SDS011;61032;50.782;6.818;2022-12-11T06:24:15;20.02;;;9.55;;
72891;SDS011;61032;50.782;6.818;2022-12-11T06:25:16;27.58;;;11.18;;
72891;SDS011;61032;50.782;6.818;2022-12-11T06:26:16;22.73;;;9.80;;
72891;SDS011;61032;50.782;6.818;2022-12-11T06:27:18;22.30;;;10.68;;
72891;SDS011;61032;50.782;6.818;2022-12-11T06:28:18;20.45;;;9.52;;
72891;SDS011;61032;50.782;6.818;2022-12-11T06:29:19;19.98;;;9.80;;